This is the latest recevied weather packets stored in our database for station/object Ummendorf. If no packets are shown the sender has not sent any weather packets the latest 10 day(s).
| Time | Temp. | Humidity | Pressure | Rain* | Wind** | Luminosity | Snow |
|---|---|---|---|---|---|---|---|
| 1777411929 | 13.89° C | 34% | 1018.2 hPa | 0 mm | - | - | - |
| 1777410130 | 14.44° C | 36% | 1018.1 hPa | 0 mm | - | - | - |
| 1777408330 | 14.44° C | 35% | 1018.1 hPa | 0 mm | - | - | - |
| 1777406537 | 13.89° C | 40% | 1017.9 hPa | 0 mm | - | - | - |
| 1777404730 | 15° C | 37% | 1017.7 hPa | 0 mm | - | - | - |
| 1777402947 | 16.11° C | 33% | 1017.5 hPa | 0 mm | - | - | - |
| 1777401131 | 16.67° C | 30% | 1017.4 hPa | 0 mm | - | - | - |
| 1777399330 | 17.22° C | 25% | 1017.1 hPa | 0 mm | - | - | - |
| 1777397531 | 17.78° C | 25% | 1016.6 hPa | 0 mm | - | - | - |
| 1777395730 | 18.33° C | 24% | 1016.3 hPa | 0 mm | - | - | - |
| 1777393932 | 18.89° C | 24% | 1016.1 hPa | 0 mm | - | - | - |
| 1777392131 | 19.44° C | 24% | 1015.9 hPa | 0 mm | - | - | - |
| 1777390330 | 20° C | 22% | 1015.7 hPa | 0 mm | - | - | - |
| 1777388530 | 20° C | 23% | 1015.8 hPa | 0 mm | - | - | - |
| 1777386731 | 20.56° C | 21% | 1016.1 hPa | 0 mm | - | - | - |
| 1777384930 | 20° C | 22% | 1016.1 hPa | 0 mm | - | - | - |
| 1777383131 | 20° C | 23% | 1016.4 hPa | 0 mm | - | - | - |
| 1777381331 | 19.44° C | 24% | 1016.7 hPa | 0 mm | - | - | - |
| 1777379531 | 18.89° C | 25% | 1016.8 hPa | 0 mm | - | - | - |
| 1777377730 | 18.89° C | 25% | 1016.9 hPa | 0 mm | - | - | - |
| 1777375931 | 18.33° C | 26% | 1017.1 hPa | 0 mm | - | - | - |
| 1777374130 | 17.78° C | 29% | 1017.3 hPa | 0 mm | - | - | - |
| 1777372331 | 17.78° C | 26% | 1017.3 hPa | 0 mm | - | - | - |
| 1777370531 | 17.78° C | 28% | 1017.4 hPa | 0 mm | - | - | - |
| 1777368731 | 16.67° C | 30% | 1017.5 hPa | 0 mm | - | - | - |
* Rain since midnight (hover to see other rain measurements)
** Current wind speed in m/s (hover to see current wind gust speed)